createdAt,value
2023-02-22T00:02:11.171Z,100369.41
2023-02-22T00:05:17.098Z,100363.66
2023-02-22T00:08:24.452Z,100368.97
2023-02-22T00:11:27.598Z,100364.84
2023-02-22T00:14:30.377Z,100370.56
2023-02-22T00:17:34.293Z,100374.16
2023-02-22T00:20:40.548Z,100367.06
2023-02-22T00:23:49.108Z,100373.72
2023-02-22T00:26:55.811Z,100369.59
2023-02-22T00:29:59.096Z,100365.56
2023-02-22T00:33:02.101Z,100368.19
2023-02-22T00:36:05.529Z,100363.25
2023-02-22T00:39:10.038Z,100371.53
2023-02-22T00:42:14.431Z,100363.72
2023-02-22T00:45:21.890Z,100361.41
2023-02-22T00:48:25.559Z,100360.84
2023-02-22T00:51:28.983Z,100363.50
2023-02-22T00:54:31.989Z,100355.44
2023-02-22T00:57:35.371Z,100357.09
2023-02-22T01:00:41.786Z,100350.06
2023-02-22T01:03:45.156Z,100363.88
2023-02-22T01:06:48.354Z,100364.31
2023-02-22T01:09:51.127Z,100352.59
2023-02-22T01:12:54.985Z,100345.47
2023-02-22T01:15:57.694Z,100353.84
2023-02-22T01:19:01.558Z,100357.75
2023-02-22T01:22:05.666Z,100355.87
2023-02-22T01:25:10.789Z,100363.50
2023-02-22T01:28:14.078Z,100362.81
2023-02-22T01:31:18.045Z,100368.25
2023-02-22T01:34:22.907Z,100371.41
2023-02-22T01:37:25.851Z,100357.66
2023-02-22T01:40:36.922Z,100355.69
2023-02-22T01:43:40.021Z,100354.09
2023-02-22T01:46:42.830Z,100347.22
2023-02-22T01:49:50.285Z,100357.31
2023-02-22T01:52:53.309Z,100356.81
2023-02-22T01:55:57.296Z,100355.44
2023-02-22T01:59:03.896Z,100356.59
2023-02-22T02:02:07.405Z,100358.63
2023-02-22T02:05:11.011Z,100354.56
2023-02-22T02:08:39.207Z,100352.03
2023-02-22T02:11:42.774Z,100341.22
2023-02-22T02:14:45.924Z,100338.34
2023-02-22T02:17:50.441Z,100340.06
2023-02-22T02:21:10.573Z,100335.94
2023-02-22T02:24:33.229Z,100336.63
2023-02-22T02:27:45.298Z,100348.59
2023-02-22T02:31:11.182Z,100342.16
2023-02-22T02:34:32.297Z,100343.75
2023-02-22T02:38:22.317Z,100349.72
2023-02-22T02:41:30.170Z,100339.25
2023-02-22T02:44:38.944Z,100345.13
2023-02-22T02:47:48.123Z,100338.47
2023-02-22T02:50:51.539Z,100336.59
2023-02-22T02:53:56.134Z,100332.72
2023-02-22T02:56:59.298Z,100337.53
2023-02-22T03:00:02.355Z,100331.34
2023-02-22T03:03:25.312Z,100340.28
2023-02-22T03:07:08.520Z,100341.22
2023-02-22T03:10:43.416Z,100346.28
2023-02-22T03:14:30.004Z,100340.50
2023-02-22T03:17:52.842Z,100354.47
2023-02-22T03:21:29.944Z,100347.47
2023-02-22T03:25:02.325Z,100355.97
2023-02-22T03:28:11.924Z,100352.44
2023-02-22T03:31:21.759Z,100346.00
2023-02-22T03:34:35.342Z,100341.53
2023-02-22T03:37:46.714Z,100346.84
2023-02-22T03:40:54.658Z,100347.28
2023-02-22T03:44:05.705Z,100343.84
2023-02-22T03:47:14.459Z,100356.81
2023-02-22T03:50:20.380Z,100353.72
2023-02-22T03:53:23.678Z,100354.94
2023-02-22T03:56:36.081Z,100356.31
2023-02-22T03:59:40.451Z,100357.88
2023-02-22T04:02:43.257Z,100358.38
2023-02-22T04:05:47.204Z,100368.91
2023-02-22T04:08:50.054Z,100368.75
2023-02-22T04:11:53.384Z,100366.63
2023-02-22T04:14:56.364Z,100368.91
2023-02-22T04:18:00.172Z,100369.53
2023-02-22T04:21:04.329Z,100373.75
2023-02-22T04:24:08.080Z,100369.59
2023-02-22T04:27:10.960Z,100379.25
2023-02-22T04:30:16.998Z,100380.13
2023-02-22T04:33:19.936Z,100374.16
2023-02-22T04:36:23.195Z,100376.91
2023-02-22T04:39:26.197Z,100381.53
2023-02-22T04:42:29.975Z,100384.00
2023-02-22T04:45:32.723Z,100382.97
2023-02-22T04:48:36.734Z,100374.47
2023-02-22T04:51:39.722Z,100380.94
2023-02-22T04:54:43.208Z,100377.78
2023-02-22T04:57:46.024Z,100373.41
2023-02-22T05:00:49.253Z,100376.03
2023-02-22T05:03:52.094Z,100382.34
2023-02-22T05:06:55.210Z,100374.72
2023-02-22T05:09:58.013Z,100376.37
2023-02-22T05:13:01.958Z,100384.31
2023-02-22T05:16:06.175Z,100370.41
2023-02-22T05:19:09.376Z,100368.97
2023-02-22T05:22:12.012Z,100374.00
2023-02-22T05:25:15.179Z,100375.06
2023-02-22T05:28:17.919Z,100376.09
2023-02-22T05:31:21.023Z,100389.34
2023-02-22T05:34:24.150Z,100400.03
2023-02-22T05:37:27.647Z,100401.72
2023-02-22T05:40:31.692Z,100407.13
2023-02-22T05:43:34.773Z,100409.66
2023-02-22T05:46:37.552Z,100408.34
2023-02-22T05:49:40.829Z,100414.13
2023-02-22T05:52:43.982Z,100415.53
2023-02-22T05:55:47.175Z,100415.06
2023-02-22T05:58:50.167Z,100414.88
2023-02-22T06:01:53.293Z,100410.84
2023-02-22T06:04:56.535Z,100419.84
2023-02-22T06:07:59.597Z,100424.09
2023-02-22T06:11:02.765Z,100427.06
2023-02-22T06:14:05.494Z,100436.72
2023-02-22T06:17:08.516Z,100436.47
2023-02-22T06:20:13.649Z,100435.75
2023-02-22T06:23:16.852Z,100430.59
2023-02-22T06:26:20.045Z,100441.28
2023-02-22T06:29:27.630Z,100438.41
2023-02-22T06:32:30.389Z,100440.56
2023-02-22T06:35:33.453Z,100432.75
2023-02-22T06:38:36.209Z,100442.88
2023-02-22T06:41:39.351Z,100443.28
2023-02-22T06:44:42.027Z,100444.75
2023-02-22T06:47:45.455Z,100452.31
2023-02-22T06:50:48.121Z,100453.50
2023-02-22T06:53:51.171Z,100447.75
2023-02-22T06:56:53.825Z,100457.56
2023-02-22T06:59:57.625Z,100450.09
2023-02-22T07:03:00.945Z,100461.03
2023-02-22T07:06:05.064Z,100468.84
2023-02-22T07:09:07.840Z,100455.78
2023-02-22T07:12:11.076Z,100468.75
2023-02-22T07:15:14.232Z,100456.34
2023-02-22T07:18:17.322Z,100451.75
2023-02-22T07:21:20.070Z,100460.25
2023-02-22T07:24:23.177Z,100457.50
2023-02-22T07:27:25.900Z,100456.44
2023-02-22T07:30:31.662Z,100450.69
2023-02-22T07:33:35.671Z,100451.34
2023-02-22T07:36:38.801Z,100451.13
2023-02-22T07:39:43.904Z,100456.25
2023-02-22T07:43:14.613Z,100466.38
2023-02-22T07:46:17.379Z,100459.00
2023-02-22T07:49:20.552Z,100466.16
2023-02-22T07:52:23.184Z,100464.28
2023-02-22T07:55:28.831Z,100461.97
2023-02-22T07:58:32.773Z,100466.09
2023-02-22T08:01:37.448Z,100453.16
2023-02-22T08:04:40.595Z,100451.22
2023-02-22T08:07:43.549Z,100454.81
2023-02-22T08:10:47.458Z,100445.44
2023-02-22T08:13:50.209Z,100438.84
2023-02-22T08:16:53.331Z,100443.06
2023-02-22T08:19:56.117Z,100437.41
2023-02-22T08:22:59.092Z,100435.47
2023-02-22T08:26:08.064Z,100440.00
2023-02-22T08:29:11.069Z,100433.84
2023-02-22T08:32:13.973Z,100426.09
2023-02-22T08:35:18.593Z,100430.81
2023-02-22T08:38:25.172Z,100433.97
2023-02-22T08:41:28.192Z,100439.78
2023-02-22T08:44:30.867Z,100436.13
2023-02-22T08:47:34.475Z,100433.97
2023-02-22T08:50:38.350Z,100436.75
2023-02-22T08:53:41.395Z,100436.87
2023-02-22T08:56:45.153Z,100445.19
2023-02-22T08:59:48.143Z,100449.50
2023-02-22T09:02:54.268Z,100435.66
2023-02-22T09:05:59.709Z,100434.94
2023-02-22T09:09:02.951Z,100436.31
2023-02-22T09:12:06.333Z,100441.75
2023-02-22T09:15:09.799Z,100445.81
2023-02-22T09:18:14.860Z,100448.16
2023-02-22T09:21:18.170Z,100446.50
2023-02-22T09:24:21.714Z,100451.38
2023-02-22T09:27:24.600Z,100446.78
2023-02-22T09:30:34.075Z,100454.25
2023-02-22T09:33:36.880Z,100461.03
2023-02-22T09:36:44.360Z,100447.00
2023-02-22T09:39:47.182Z,100446.97
2023-02-22T09:43:01.072Z,100444.03
2023-02-22T09:46:19.718Z,100448.38
2023-02-22T09:49:40.069Z,100445.00
2023-02-22T09:52:58.072Z,100438.25
2023-02-22T09:56:06.998Z,100452.62
2023-02-22T09:59:15.861Z,100436.59
2023-02-22T10:02:31.843Z,100427.34
2023-02-22T10:05:39.984Z,100433.03
2023-02-22T10:08:45.062Z,100424.69
2023-02-22T10:12:16.544Z,100428.97
2023-02-22T10:15:41.598Z,100424.59
2023-02-22T10:18:48.179Z,100408.16
2023-02-22T10:21:50.804Z,100417.00
2023-02-22T10:25:00.202Z,100409.47
2023-02-22T10:28:28.394Z,100403.41
2023-02-22T10:31:34.138Z,100398.22
2023-02-22T10:34:43.391Z,100395.94
2023-02-22T10:37:48.453Z,100390.09
2023-02-22T10:41:17.542Z,100392.81
2023-02-22T10:44:20.714Z,100390.41
2023-02-22T10:47:24.852Z,100389.87
2023-02-22T10:50:32.260Z,100389.28
2023-02-22T10:53:38.484Z,100384.88
2023-02-22T10:56:55.171Z,100385.03
2023-02-22T10:59:58.549Z,100391.19
2023-02-22T11:03:18.129Z,100376.28
2023-02-22T11:06:21.943Z,100377.59
2023-02-22T11:09:25.678Z,100377.56
2023-02-22T11:12:32.863Z,100367.72
2023-02-22T11:15:36.212Z,100367.72
2023-02-22T11:18:39.053Z,100360.78
2023-02-22T11:21:43.288Z,100367.72
2023-02-22T11:25:02.604Z,100352.66
2023-02-22T11:28:15.097Z,100348.91
2023-02-22T11:31:21.997Z,100344.34
2023-02-22T11:34:26.695Z,100341.97
2023-02-22T11:37:36.745Z,100338.31
2023-02-22T11:40:40.370Z,100332.88
2023-02-22T11:43:48.216Z,100327.56
2023-02-22T11:46:55.863Z,100328.28
2023-02-22T11:49:58.617Z,100323.53
2023-02-22T11:53:40.097Z,100331.75
2023-02-22T11:56:49.986Z,100337.31
2023-02-22T12:00:17.034Z,100329.03
2023-02-22T12:03:50.100Z,100324.28
2023-02-22T12:07:10.781Z,100317.50
2023-02-22T12:10:47.223Z,100315.63
2023-02-22T12:14:07.831Z,100317.03
2023-02-22T12:17:26.180Z,100316.03
2023-02-22T12:20:47.815Z,100311.06
2023-02-22T12:24:07.486Z,100312.88
2023-02-22T12:27:22.604Z,100315.00
2023-02-22T12:30:34.571Z,100318.19
2023-02-22T12:34:20.174Z,100310.28
2023-02-22T12:37:29.168Z,100304.84
2023-02-22T12:40:54.761Z,100317.19
2023-02-22T12:44:10.130Z,100319.59
2023-02-22T12:47:21.839Z,100303.69
2023-02-22T12:50:29.764Z,100314.44
2023-02-22T12:53:37.307Z,100307.16
2023-02-22T12:56:56.283Z,100307.50
2023-02-22T13:00:10.454Z,100306.62
2023-02-22T13:03:35.148Z,100299.03
2023-02-22T13:07:08.865Z,100293.44
2023-02-22T13:10:31.527Z,100287.87
2023-02-22T13:13:55.630Z,100294.25
2023-02-22T13:17:24.941Z,100287.13
2023-02-22T13:20:34.436Z,100289.47
2023-02-22T13:23:50.637Z,100282.31
2023-02-22T13:27:22.969Z,100287.19
2023-02-22T13:30:51.793Z,100284.81
2023-02-22T13:34:40.347Z,100282.03
2023-02-22T13:38:05.978Z,100288.41
2023-02-22T13:41:20.851Z,100285.63
2023-02-22T13:45:13.299Z,100278.00
2023-02-22T13:48:24.897Z,100276.75
2023-02-22T13:51:37.180Z,100275.56
2023-02-22T13:55:11.334Z,100287.87
2023-02-22T13:58:15.612Z,100291.75
2023-02-22T14:01:42.682Z,100280.19
2023-02-22T14:04:45.780Z,100281.41
2023-02-22T14:07:49.578Z,100270.66
2023-02-22T14:10:55.951Z,100282.97
2023-02-22T14:14:01.204Z,100274.22
2023-02-22T14:17:28.983Z,100274.16
2023-02-22T14:20:40.400Z,100275.75
2023-02-22T14:23:45.958Z,100271.72
2023-02-22T14:26:59.761Z,100276.50
2023-02-22T14:30:02.978Z,100273.72
2023-02-22T14:33:44.346Z,100273.31
2023-02-22T14:36:58.868Z,100272.50
2023-02-22T14:40:13.253Z,100265.34
2023-02-22T14:43:21.319Z,100266.88
2023-02-22T14:46:29.679Z,100264.09
2023-02-22T14:49:42.319Z,100262.06
2023-02-22T14:52:48.993Z,100255.75
2023-02-22T14:56:02.863Z,100253.78
2023-02-22T14:59:17.870Z,100254.56
2023-02-22T15:02:26.133Z,100258.19
2023-02-22T15:05:38.712Z,100251.41
2023-02-22T15:08:48.959Z,100251.38
2023-02-22T15:12:04.228Z,100250.13
2023-02-22T15:15:14.529Z,100246.87
2023-02-22T15:18:22.255Z,100240.53
2023-02-22T15:21:28.562Z,100240.53
2023-02-22T15:24:34.903Z,100240.06
2023-02-22T15:27:41.437Z,100244.03
2023-02-22T15:30:44.772Z,100238.84
2023-02-22T15:33:47.890Z,100240.41
2023-02-22T15:36:54.790Z,100245.94
2023-02-22T15:40:21.116Z,100239.19
2023-02-22T15:43:25.415Z,100243.94
2023-02-22T15:46:29.222Z,100247.50
2023-02-22T15:49:37.241Z,100251.41
2023-02-22T15:52:40.375Z,100247.00
2023-02-22T15:55:50.054Z,100242.62
2023-02-22T15:59:00.996Z,100240.94
2023-02-22T16:02:04.341Z,100241.75
2023-02-22T16:05:12.410Z,100238.56
2023-02-22T16:08:23.473Z,100245.62
2023-02-22T16:11:32.189Z,100233.31
2023-02-22T16:14:35.016Z,100241.25
2023-02-22T16:18:02.347Z,100240.47
2023-02-22T16:21:13.282Z,100245.62
2023-02-22T16:24:27.036Z,100248.00
2023-02-22T16:27:29.914Z,100253.19
2023-02-22T16:30:38.665Z,100245.94
2023-02-22T16:33:43.517Z,100247.13
2023-02-22T16:36:52.059Z,100248.94
2023-02-22T16:39:56.847Z,100252.47
2023-02-22T16:43:03.049Z,100246.47
2023-02-22T16:46:07.232Z,100246.59
2023-02-22T16:49:12.826Z,100258.59
2023-02-22T16:52:15.963Z,100247.00
2023-02-22T16:55:22.740Z,100257.31
2023-02-22T16:58:30.073Z,100251.78
2023-02-22T17:01:35.209Z,100250.59
2023-02-22T17:04:40.414Z,100251.47
2023-02-22T17:07:45.417Z,100261.31
2023-02-22T17:10:51.751Z,100259.84
2023-02-22T17:13:55.903Z,100256.16
2023-02-22T17:16:59.919Z,100261.31
2023-02-22T17:20:12.011Z,100263.78
2023-02-22T17:23:15.592Z,100257.06
2023-02-22T17:26:19.697Z,100253.53
2023-02-22T17:29:23.152Z,100264.22
2023-02-22T17:32:26.927Z,100262.78
2023-02-22T17:35:36.507Z,100260.97
2023-02-22T17:38:42.662Z,100255.72
2023-02-22T17:41:46.212Z,100258.41
2023-02-22T17:44:50.333Z,100256.78
2023-02-22T17:47:53.657Z,100253.28
2023-02-22T17:50:57.373Z,100252.03
2023-02-22T17:54:02.177Z,100255.59
2023-02-22T17:57:06.135Z,100250.22
2023-02-22T18:00:16.326Z,100250.13
2023-02-22T18:03:26.173Z,100259.59
2023-02-22T18:06:33.393Z,100265.91
2023-02-22T18:09:38.970Z,100259.50
2023-02-22T18:12:44.308Z,100257.81
2023-02-22T18:15:49.231Z,100259.09
2023-02-22T18:18:54.203Z,100263.47
2023-02-22T18:22:00.405Z,100252.41
2023-02-22T18:25:04.241Z,100241.34
2023-02-22T18:28:09.128Z,100245.91
2023-02-22T18:31:16.020Z,100250.22
2023-02-22T18:34:19.678Z,100244.09
2023-02-22T18:37:24.674Z,100247.03
2023-02-22T18:40:32.433Z,100247.88
2023-02-22T18:43:38.653Z,100252.59
2023-02-22T18:46:46.586Z,100249.00
2023-02-22T18:49:51.393Z,100250.47
2023-02-22T18:52:56.160Z,100261.69
2023-02-22T18:56:08.028Z,100257.03
2023-02-22T18:59:13.435Z,100253.66
2023-02-22T19:02:21.935Z,100252.41
2023-02-22T19:05:25.805Z,100253.69
2023-02-22T19:08:33.334Z,100250.87
2023-02-22T19:11:39.101Z,100252.69
2023-02-22T19:14:43.178Z,100251.69
2023-02-22T19:17:47.946Z,100253.38
2023-02-22T19:20:59.968Z,100242.84
2023-02-22T19:24:06.808Z,100256.78
2023-02-22T19:27:11.763Z,100253.25
2023-02-22T19:30:20.857Z,100251.78
2023-02-22T19:33:26.336Z,100252.00
2023-02-22T19:36:32.405Z,100250.34
2023-02-22T19:39:39.136Z,100258.44
2023-02-22T19:42:46.561Z,100257.22
2023-02-22T19:45:50.460Z,100255.16
2023-02-22T19:48:59.122Z,100251.94
2023-02-22T19:52:07.885Z,100259.22
2023-02-22T19:55:19.917Z,100260.81
2023-02-22T19:58:24.506Z,100264.56
2023-02-22T20:01:33.979Z,100266.50
2023-02-22T20:04:39.061Z,100258.28
2023-02-22T20:07:44.795Z,100255.69
2023-02-22T20:10:49.111Z,100260.56
2023-02-22T20:13:57.656Z,100252.44
2023-02-22T20:17:02.447Z,100263.22
2023-02-22T20:20:07.586Z,100257.78
2023-02-22T20:23:15.675Z,100261.06
2023-02-22T20:26:24.942Z,100252.00
2023-02-22T20:29:32.352Z,100244.53
2023-02-22T20:32:40.912Z,100258.41
2023-02-22T20:35:46.517Z,100254.03
2023-02-22T20:38:55.038Z,100255.56
2023-02-22T20:42:02.151Z,100253.03
2023-02-22T20:45:07.186Z,100251.69
2023-02-22T20:48:12.351Z,100256.25
2023-02-22T20:51:17.460Z,100261.31
2023-02-22T20:54:22.366Z,100258.44
2023-02-22T20:57:25.776Z,100261.37
2023-02-22T21:00:30.816Z,100257.87
2023-02-22T21:03:36.088Z,100260.31
2023-02-22T21:06:42.361Z,100257.47
2023-02-22T21:09:46.326Z,100256.69
2023-02-22T21:12:52.292Z,100253.63
2023-02-22T21:15:56.300Z,100260.87
2023-02-22T21:19:04.524Z,100245.41
2023-02-22T21:22:09.011Z,100244.00
2023-02-22T21:25:14.723Z,100246.59
2023-02-22T21:28:18.713Z,100257.00
2023-02-22T21:31:24.960Z,100252.81
2023-02-22T21:34:32.051Z,100249.12
2023-02-22T21:37:35.826Z,100254.37
2023-02-22T21:40:39.552Z,100257.25
2023-02-22T21:43:44.715Z,100249.25
2023-02-22T21:46:51.035Z,100257.94
2023-02-22T21:49:54.888Z,100252.62
2023-02-22T21:52:58.405Z,100257.87
2023-02-22T21:56:06.021Z,100257.25
2023-02-22T21:59:15.739Z,100256.91
2023-02-22T22:02:21.111Z,100256.81
2023-02-22T22:05:34.868Z,100249.38
2023-02-22T22:08:40.347Z,100247.91
2023-02-22T22:11:43.419Z,100246.44
2023-02-22T22:14:46.195Z,100240.09
2023-02-22T22:17:49.316Z,100243.13
2023-02-22T22:20:52.069Z,100244.50
2023-02-22T22:23:56.343Z,100243.44
2023-02-22T22:27:03.826Z,100244.59
2023-02-22T22:30:08.333Z,100252.72
2023-02-22T22:33:11.590Z,100251.34
2023-02-22T22:36:17.215Z,100246.91
2023-02-22T22:39:21.337Z,100251.75
2023-02-22T22:42:25.142Z,100245.16
2023-02-22T22:45:27.961Z,100251.84
2023-02-22T22:48:36.168Z,100256.06
2023-02-22T22:51:41.170Z,100251.03
2023-02-22T22:54:44.342Z,100248.69
2023-02-22T22:57:47.146Z,100260.78
2023-02-22T23:00:50.254Z,100254.28
2023-02-22T23:04:01.560Z,100251.97
2023-02-22T23:07:06.794Z,100257.19
2023-02-22T23:10:12.832Z,100256.06
2023-02-22T23:13:15.888Z,100257.31
2023-02-22T23:16:20.022Z,100262.75
2023-02-22T23:19:23.045Z,100254.22
2023-02-22T23:22:27.591Z,100252.69
2023-02-22T23:25:30.629Z,100262.59
2023-02-22T23:28:33.329Z,100261.56
2023-02-22T23:31:39.846Z,100259.03
2023-02-22T23:34:42.720Z,100262.09
2023-02-22T23:37:53.124Z,100262.06
2023-02-22T23:40:57.821Z,100256.25
2023-02-22T23:44:01.119Z,100260.97
2023-02-22T23:47:04.529Z,100256.25
2023-02-22T23:50:13.651Z,100258.19
2023-02-22T23:53:16.468Z,100257.63
2023-02-22T23:56:22.152Z,100261.81
2023-02-22T23:59:26.778Z,100252.81
